Time;durP1;ratioP1;P1;durP2;ratioP2;P2;SDS_P1;SDS_P2;PMS_P1;PMS_P2;Temp;Humidity;BMP_temperature;BMP_pressure;BME280_temperature;BME280_humidity;BME280_pressure;Samples;Min_cycle;Max_cycle;Signal;HPM_P1;HPM_P2
2021/03/04 00:00:22;;;;;;;57.80;32.73;;;;;;;4.86;100.00;101578.81;5053521;28;20301;-67
2021/03/04 00:02:49;;;;;;;60.73;33.67;;;;;;;4.69;100.00;101571.44;5048202;28;20183;-67
2021/03/04 00:05:15;;;;;;;60.87;34.60;;;;;;;4.79;100.00;101578.00;5042497;28;20621;-68
2021/03/04 00:07:41;;;;;;;60.50;34.57;;;;;;;4.64;100.00;101565.84;5050094;28;20211;-67
2021/03/04 00:10:11;;;;;;;56.53;33.47;;;;;;;4.48;100.00;101571.66;5033083;28;20192;-68
2021/03/04 00:12:36;;;;;;;60.50;33.13;;;;;;;4.77;100.00;101563.09;5017013;28;20231;-68
2021/03/04 00:15:05;;;;;;;57.40;32.40;;;;;;;4.35;100.00;101557.44;5033199;28;20664;-70
2021/03/04 00:17:36;;;;;;;53.73;31.37;;;;;;;4.34;100.00;101569.22;5051877;28;20765;-68
2021/03/04 00:20:09;;;;;;;55.23;31.53;;;;;;;4.43;100.00;101554.50;5066972;28;20191;-68
2021/03/04 00:22:41;;;;;;;48.37;29.30;;;;;;;4.41;100.00;101556.59;5048934;28;20364;-68
2021/03/04 00:25:08;;;;;;;48.57;29.60;;;;;;;4.38;100.00;101557.03;5050390;28;20210;-69
2021/03/04 00:27:36;;;;;;;49.00;28.40;;;;;;;4.60;100.00;101546.59;5033910;28;20538;-69
2021/03/04 00:30:03;;;;;;;50.03;30.43;;;;;;;4.37;100.00;101553.50;5033838;28;20186;-69
2021/03/04 00:32:31;;;;;;;49.40;27.23;;;;;;;4.46;100.00;101556.78;5016565;28;20241;-68
2021/03/04 00:34:56;;;;;;;47.73;26.80;;;;;;;4.26;100.00;101559.50;5049961;28;21016;-69
2021/03/04 00:37:22;;;;;;;50.80;29.13;;;;;;;4.23;100.00;101557.25;5049523;28;20752;-66
2021/03/04 00:39:47;;;;;;;45.53;28.17;;;;;;;4.13;100.00;101568.66;5051207;28;20231;-69
2021/03/04 00:42:13;;;;;;;54.07;28.10;;;;;;;4.48;100.00;101557.41;5050036;28;20227;-69
2021/03/04 00:44:40;;;;;;;50.57;29.17;;;;;;;4.37;100.00;101572.31;5017485;28;20676;-68
2021/03/04 00:47:06;;;;;;;46.67;27.20;;;;;;;4.36;100.00;101568.00;5050681;28;20237;-69
2021/03/04 00:49:34;;;;;;;49.40;28.07;;;;;;;4.34;100.00;101556.63;5033764;28;20243;-70
2021/03/04 00:51:59;;;;;;;49.37;26.73;;;;;;;4.24;100.00;101555.38;5031730;28;20318;-68
2021/03/04 00:54:25;;;;;;;51.90;29.13;;;;;;;4.06;100.00;101546.31;5049693;28;20348;-69
2021/03/04 00:56:53;;;;;;;50.73;28.87;;;;;;;4.15;100.00;101542.38;5048796;28;20317;-69
2021/03/04 00:59:18;;;;;;;47.80;28.50;;;;;;;4.23;100.00;101551.88;5050407;28;20208;-71
2021/03/04 01:01:44;;;;;;;50.20;29.23;;;;;;;4.03;100.00;101557.47;5049698;28;20589;-69
2021/03/04 01:04:10;;;;;;;54.93;29.63;;;;;;;4.22;100.00;101558.28;5050664;28;20245;-68
2021/03/04 01:06:35;;;;;;;50.10;26.27;;;;;;;4.25;100.00;101560.56;5049886;28;20735;-70
2021/03/04 01:09:03;;;;;;;53.07;28.10;;;;;;;4.02;100.00;101555.84;5050017;28;20180;-67
2021/03/04 01:11:28;;;;;;;51.43;27.13;;;;;;;4.08;100.00;101549.63;5032329;28;20705;-67
2021/03/04 01:13:54;;;;;;;52.73;28.67;;;;;;;4.06;100.00;101546.31;5048363;28;20219;-68
2021/03/04 01:16:20;;;;;;;46.63;25.43;;;;;;;3.96;100.00;101545.94;5015576;28;20306;-67
2021/03/04 01:18:45;;;;;;;49.00;24.53;;;;;;;3.64;100.00;101544.06;5050187;28;20211;-67
2021/03/04 01:21:11;;;;;;;49.77;25.07;;;;;;;3.62;100.00;101540.75;5048564;28;20229;-67
2021/03/04 01:23:36;;;;;;;47.67;24.97;;;;;;;3.85;100.00;101535.81;5031587;28;20685;-69
2021/03/04 01:26:04;;;;;;;50.77;25.97;;;;;;;3.78;100.00;101543.03;5032216;28;20701;-67
2021/03/04 01:28:31;;;;;;;50.70;24.67;;;;;;;3.61;100.00;101543.66;5016243;28;20190;-68
2021/03/04 01:30:57;;;;;;;53.13;25.33;;;;;;;3.81;100.00;101539.94;5049801;28;20809;-68
2021/03/04 01:33:22;;;;;;;45.53;23.67;;;;;;;3.76;100.00;101539.72;5048097;28;20262;-70
2021/03/04 01:35:48;;;;;;;50.10;25.30;;;;;;;3.63;100.00;101529.00;5055850;28;20233;-67
2021/03/04 01:38:14;;;;;;;48.80;25.20;;;;;;;3.72;100.00;101527.75;5052300;28;20219;-68
2021/03/04 01:40:39;;;;;;;45.07;22.97;;;;;;;3.56;100.00;101533.53;5064824;28;20207;-68
2021/03/04 01:43:05;;;;;;;47.97;23.50;;;;;;;3.63;100.00;101529.00;5033790;28;20179;-66
2021/03/04 01:45:30;;;;;;;46.57;24.17;;;;;;;3.54;100.00;101519.47;5084300;28;20703;-67
2021/03/04 01:47:56;;;;;;;46.70;24.47;;;;;;;3.54;100.00;101516.78;5052141;28;20228;-68
2021/03/04 01:50:24;;;;;;;46.50;25.10;;;;;;;3.69;100.00;101512.03;5051361;28;20183;-69
2021/03/04 01:52:52;;;;;;;44.63;24.27;;;;;;;3.84;100.00;101504.59;5068709;28;20183;-69
2021/03/04 01:55:20;;;;;;;45.63;23.13;;;;;;;3.84;100.00;101504.59;5035002;28;20202;-68
2021/03/04 01:57:46;;;;;;;42.30;23.17;;;;;;;3.79;100.00;101499.03;5052304;28;20204;-68
2021/03/04 02:00:12;;;;;;;50.63;25.23;;;;;;;3.82;100.00;101501.28;5034677;28;20218;-67
2021/03/04 02:02:38;;;;;;;48.30;25.30;;;;;;;3.73;100.00;101501.72;5051039;28;20743;-69
2021/03/04 02:05:16;;;;;;;46.60;25.93;;;;;;;3.72;100.00;101492.84;5068324;28;20317;-68
2021/03/04 02:08:29;;;;;;;42.40;24.17;;;;;;;4.07;100.00;101486.19;5052293;28;20171;-67
2021/03/04 02:10:58;;;;;;;48.37;25.27;;;;;;;3.75;100.00;101488.91;5034980;28;20308;-68
2021/03/04 02:13:47;;;;;;;48.67;25.17;;;;;;;3.91;100.00;101479.34;5067799;28;20186;-68
2021/03/04 02:16:30;;;;;;;47.17;24.70;;;;;;;3.77;100.00;101493.00;5061191;28;20798;-69
2021/03/04 02:19:00;;;;;;;49.93;26.43;;;;;;;3.78;100.00;101483.94;5019915;28;20213;-67
2021/03/04 02:21:47;;;;;;;48.97;25.40;;;;;;;3.89;100.00;101475.25;5035879;28;20261;-68
2021/03/04 02:24:29;;;;;;;48.23;25.90;;;;;;;4.09;100.00;101468.78;5052842;28;20194;-67
2021/03/04 02:27:08;;;;;;;47.47;24.97;;;;;;;3.88;100.00;101463.69;5069288;28;20230;-67
2021/03/04 02:29:44;;;;;;;47.90;25.17;;;;;;;3.99;100.00;101463.03;5070983;28;20197;-67
2021/03/04 02:32:10;;;;;;;52.33;26.57;;;;;;;3.65;100.00;101467.00;5036111;28;20226;-68
2021/03/04 02:34:43;;;;;;;49.00;24.67;;;;;;;4.01;100.00;101468.19;5035948;28;20616;-69
2021/03/04 02:37:08;;;;;;;47.27;24.50;;;;;;;4.02;100.00;101465.28;5051467;28;20731;-69
2021/03/04 02:39:34;;;;;;;43.87;23.13;;;;;;;3.96;100.00;101460.75;5051494;28;20226;-67
2021/03/04 02:41:59;;;;;;;40.27;21.90;;;;;;;4.02;100.00;101470.66;5033248;28;20219;-68
2021/03/04 02:44:25;;;;;;;37.93;21.40;;;;;;;4.14;100.00;101468.16;5068043;28;20207;-69
2021/03/04 02:46:50;;;;;;;42.33;22.47;;;;;;;3.93;100.00;101466.53;5052162;28;20230;-67
2021/03/04 02:49:16;;;;;;;42.27;22.33;;;;;;;3.87;100.00;101469.25;5055312;28;20202;-68
2021/03/04 02:51:41;;;;;;;39.53;21.80;;;;;;;3.91;100.00;101467.81;5054143;28;20222;-68
2021/03/04 02:54:07;;;;;;;39.73;21.67;;;;;;;3.84;100.00;101453.53;5038399;28;20226;-70
2021/03/04 02:56:36;;;;;;;40.30;20.73;;;;;;;3.74;100.00;101458.53;5054952;28;20227;-67
2021/03/04 02:59:05;;;;;;;37.53;21.43;;;;;;;3.72;100.00;101457.91;5038470;28;20244;-67
2021/03/04 03:01:33;;;;;;;44.33;22.67;;;;;;;3.71;100.00;101456.25;5037587;28;20218;-68
2021/03/04 03:04:01;;;;;;;46.70;22.33;;;;;;;3.73;100.00;101453.38;5055088;28;20214;-68
2021/03/04 03:06:32;;;;;;;44.77;22.63;;;;;;;3.66;100.00;101458.72;5054782;28;20226;-67
2021/03/04 03:08:57;;;;;;;41.87;21.37;;;;;;;3.57;100.00;101460.00;5055084;28;20529;-67
2021/03/04 03:11:23;;;;;;;41.80;21.53;;;;;;;3.50;100.00;101459.16;5054238;28;20284;-67
2021/03/04 03:13:52;;;;;;;41.03;20.40;;;;;;;3.63;100.00;101464.53;5037476;28;20213;-67
2021/03/04 03:16:18;;;;;;;45.47;21.10;;;;;;;3.54;100.00;101460.41;5054811;28;20321;-67
2021/03/04 03:18:44;;;;;;;38.93;18.67;;;;;;;3.62;100.00;101454.81;5070900;28;20692;-67
2021/03/04 03:21:10;;;;;;;39.67;19.10;;;;;;;3.73;100.00;101438.06;5070891;28;20306;-69
2021/03/04 03:23:36;;;;;;;36.93;18.33;;;;;;;3.42;100.00;101449.66;5037083;28;20317;-67
2021/03/04 03:26:01;;;;;;;32.87;15.87;;;;;;;3.84;100.00;101434.75;5033987;28;20229;-68
2021/03/04 03:28:29;;;;;;;32.20;15.80;;;;;;;3.58;100.00;101445.53;5052565;28;20172;-68
2021/03/04 03:30:57;;;;;;;29.73;16.10;;;;;;;3.42;100.00;101450.47;5024380;28;20234;-67
2021/03/04 03:33:23;;;;;;;31.30;16.37;;;;;;;3.51;100.00;101447.38;5070219;28;20697;-68
2021/03/04 03:35:51;;;;;;;32.43;16.40;;;;;;;3.42;100.00;101445.13;5053688;28;20237;-67
2021/03/04 03:38:16;;;;;;;29.90;15.90;;;;;;;3.53;100.00;101431.88;5069111;28;20241;-67
2021/03/04 03:40:47;;;;;;;33.63;17.60;;;;;;;3.43;100.00;101442.22;5053480;28;20231;-69
2021/03/04 03:43:14;;;;;;;34.30;16.67;;;;;;;3.33;100.00;101434.78;5037784;28;20203;-68
2021/03/04 03:45:41;;;;;;;35.27;17.50;;;;;;;3.37;100.00;101433.34;5037011;28;20231;-67
2021/03/04 03:48:08;;;;;;;33.43;15.87;;;;;;;3.30;100.00;101427.19;5070939;28;20680;-68
2021/03/04 03:50:34;;;;;;;30.60;16.60;;;;;;;3.26;100.00;101417.84;5036824;28;20768;-68
2021/03/04 03:53:00;;;;;;;29.20;15.73;;;;;;;3.49;100.00;101405.66;5036411;28;20183;-68
2021/03/04 03:55:28;;;;;;;31.20;16.30;;;;;;;3.36;100.00;101405.69;5056962;28;20224;-68
2021/03/04 03:57:54;;;;;;;32.57;16.87;;;;;;;3.52;100.00;101406.09;5040980;28;20802;-68
2021/03/04 04:00:24;;;;;;;35.00;17.47;;;;;;;3.41;100.00;101410.41;5033533;28;20199;-68
2021/03/04 04:03:10;;;;;;;32.97;16.97;;;;;;;3.63;100.00;101402.75;5033605;28;20219;-67
2021/03/04 04:05:36;;;;;;;32.80;17.03;;;;;;;3.56;100.00;101399.25;5049538;28;20608;-67
2021/03/04 04:08:02;;;;;;;33.70;17.43;;;;;;;3.33;100.00;101402.59;5017074;28;20184;-68
2021/03/04 04:10:32;;;;;;;33.83;17.30;;;;;;;3.43;100.00;101405.69;5017055;28;20289;-67
2021/03/04 04:12:58;;;;;;;33.07;18.13;;;;;;;3.48;100.00;101396.81;5050790;28;20180;-68
2021/03/04 04:15:26;;;;;;;37.77;18.10;;;;;;;3.70;100.00;101387.47;5049753;28;20219;-68
2021/03/04 04:17:55;;;;;;;35.43;18.23;;;;;;;3.76;100.00;101383.13;5050352;28;20207;-69
2021/03/04 04:20:20;;;;;;;35.67;18.20;;;;;;;3.76;100.00;101386.63;5066491;28;20188;-68
2021/03/04 04:22:48;;;;;;;38.70;18.63;;;;;;;3.59;100.00;101377.38;5049773;28;20211;-67
2021/03/04 04:25:20;;;;;;;35.47;18.10;;;;;;;3.82;100.00;101378.53;5049521;28;20219;-68
2021/03/04 04:27:45;;;;;;;36.43;19.13;;;;;;;3.71;100.00;101381.03;5033776;28;20190;-69
2021/03/04 04:30:11;;;;;;;39.07;20.00;;;;;;;3.82;100.00;101388.47;5032945;28;20556;-68
2021/03/04 04:32:37;;;;;;;35.67;18.77;;;;;;;3.79;100.00;101388.06;5049090;28;20191;-69
2021/03/04 04:35:02;;;;;;;38.43;18.83;;;;;;;3.42;100.00;101379.88;5032815;28;20214;-67
2021/03/04 04:37:28;;;;;;;39.37;19.30;;;;;;;3.65;100.00;101386.44;5016964;28;20191;-67
2021/03/04 04:39:54;;;;;;;41.20;19.90;;;;;;;3.64;100.00;101374.84;5049754;28;20286;-68
2021/03/04 04:42:19;;;;;;;38.77;20.23;;;;;;;3.48;100.00;101374.50;5048547;28;20688;-70
2021/03/04 04:44:45;;;;;;;42.33;19.87;;;;;;;3.53;100.00;101364.75;5029995;28;20249;-67
2021/03/04 04:47:13;;;;;;;38.37;20.93;;;;;;;3.59;100.00;101369.31;5062176;28;20281;-67
2021/03/04 04:49:38;;;;;;;35.87;19.80;;;;;;;3.49;100.00;101366.22;5046320;28;20188;-68
2021/03/04 04:52:04;;;;;;;41.40;21.77;;;;;;;3.85;100.00;101358.50;5044984;28;20588;-68
2021/03/04 04:54:29;;;;;;;40.00;20.57;;;;;;;3.87;100.00;101356.41;5029743;28;20440;-68
2021/03/04 04:56:55;;;;;;;40.83;20.87;;;;;;;3.91;100.00;101365.69;5045792;28;20239;-68
2021/03/04 04:59:20;;;;;;;38.27;21.17;;;;;;;3.69;100.00;101361.63;5062864;28;20247;-68
2021/03/04 05:01:46;;;;;;;42.93;22.10;;;;;;;3.76;100.00;101361.63;5074013;28;20292;-68
2021/03/04 05:04:14;;;;;;;42.13;20.57;;;;;;;3.88;100.00;101350.84;5067557;28;20506;-68
2021/03/04 05:06:42;;;;;;;41.73;21.13;;;;;;;3.76;100.00;101345.50;5054254;28;20218;-68
2021/03/04 05:09:07;;;;;;;45.47;22.33;;;;;;;3.69;100.00;101350.88;5038167;28;20208;-67
2021/03/04 05:11:36;;;;;;;38.87;21.00;;;;;;;3.73;100.00;101341.38;5052858;28;20223;-69
2021/03/04 05:14:02;;;;;;;45.53;22.03;;;;;;;3.79;100.00;101343.22;5053296;28;20203;-67
2021/03/04 05:16:27;;;;;;;42.00;22.03;;;;;;;3.76;100.00;101335.59;5068636;28;20226;-68
2021/03/04 05:18:53;;;;;;;37.73;21.47;;;;;;;3.73;100.00;101332.50;5069150;28;20218;-68
2021/03/04 05:21:23;;;;;;;42.53;22.50;;;;;;;3.48;100.00;101336.91;5068518;28;20229;-68
2021/03/04 05:23:49;;;;;;;39.73;21.70;;;;;;;3.52;100.00;101333.59;5069203;28;20202;-67
2021/03/04 05:26:14;;;;;;;42.77;22.23;;;;;;;3.72;100.00;101330.84;5068602;28;20276;-68
2021/03/04 05:28:40;;;;;;;41.53;22.50;;;;;;;3.44;100.00;101341.03;5052206;28;20194;-69
2021/03/04 05:31:05;;;;;;;37.27;21.30;;;;;;;3.61;100.00;101337.69;5059058;28;20222;-67
2021/03/04 05:33:31;;;;;;;38.13;20.23;;;;;;;3.56;100.00;101329.44;5025008;28;20656;-69
2021/03/04 05:35:56;;;;;;;39.60;21.57;;;;;;;3.50;100.00;101335.66;5017165;28;20223;-70
2021/03/04 05:38:22;;;;;;;36.13;20.93;;;;;;;3.55;100.00;101325.13;5034318;28;20266;-68
2021/03/04 05:40:52;;;;;;;41.70;21.80;;;;;;;3.57;100.00;101327.56;5027810;28;20236;-70
2021/03/04 05:43:18;;;;;;;38.43;20.03;;;;;;;3.65;100.00;101322.81;5028163;28;20608;-70
2021/03/04 05:45:43;;;;;;;39.67;20.53;;;;;;;3.69;100.00;101329.41;5033831;28;20238;-69
2021/03/04 05:48:09;;;;;;;31.67;17.73;;;;;;;3.59;100.00;101329.03;5048783;28;20184;-71
2021/03/04 05:50:41;;;;;;;35.73;17.77;;;;;;;3.53;100.00;101324.47;5064983;28;20749;-68
2021/03/04 05:53:15;;;;;;;35.97;18.90;;;;;;;3.42;100.00;101318.13;5064363;28;20182;-68
2021/03/04 05:55:44;;;;;;;33.93;17.73;;;;;;;3.27;100.00;101322.91;5048028;28;20608;-68
2021/03/04 05:58:09;;;;;;;36.27;18.53;;;;;;;3.29;100.00;101326.19;5048246;28;20234;-68
2021/03/04 06:00:34;;;;;;;36.10;18.00;;;;;;;3.16;100.00;101326.22;5048065;28;20625;-69
2021/03/04 06:03:00;;;;;;;38.37;18.80;;;;;;;3.13;100.00;101324.78;5047811;28;20194;-69
2021/03/04 06:05:26;;;;;;;34.83;18.03;;;;;;;3.19;100.00;101326.63;5031399;28;20791;-69
2021/03/04 06:07:52;;;;;;;38.27;19.87;;;;;;;3.41;100.00;101314.63;5049921;28;20205;-69
2021/03/04 06:10:17;;;;;;;40.17;18.97;;;;;;;3.42;100.00;101315.44;5048118;28;20706;-69
2021/03/04 06:12:45;;;;;;;39.50;18.87;;;;;;;3.33;100.00;101316.69;5081101;28;20191;-69
2021/03/04 06:15:11;;;;;;;37.63;17.93;;;;;;;3.20;100.00;101314.03;5065196;28;20210;-69
2021/03/04 06:17:37;;;;;;;40.40;20.00;;;;;;;3.47;100.00;101306.53;5048129;28;20203;-69
2021/03/04 06:20:07;;;;;;;36.37;18.87;;;;;;;3.60;100.00;101306.50;5048269;28;20219;-68
2021/03/04 06:22:36;;;;;;;28.97;15.27;;;;;;;3.47;100.00;101303.03;5032959;28;20241;-69
2021/03/04 06:25:09;;;;;;;25.27;15.13;;;;;;;3.33;100.00;101303.28;5035158;28;20649;-71
2021/03/04 06:27:36;;;;;;;25.33;14.33;;;;;;;3.59;100.00;101304.88;5036266;28;20362;-69
2021/03/04 06:30:07;;;;;;;24.23;13.27;;;;;;;3.36;100.00;101306.38;5052310;28;20638;-68
2021/03/04 06:32:33;;;;;;;24.97;13.33;;;;;;;3.29;100.00;101307.41;5051286;28;20553;-68
2021/03/04 06:35:06;;;;;;;24.13;13.40;;;;;;;3.20;100.00;101300.63;5035711;28;20219;-69
2021/03/04 06:37:34;;;;;;;24.27;12.47;;;;;;;3.33;100.00;101305.97;5034361;28;20211;-69
2021/03/04 06:39:59;;;;;;;23.60;12.40;;;;;;;3.41;100.00;101308.41;5052747;28;20643;-69
2021/03/04 06:42:25;;;;;;;19.53;11.60;;;;;;;3.62;100.00;101307.09;5034369;28;20231;-69
2021/03/04 06:44:54;;;;;;;20.17;11.03;;;;;;;3.40;100.00;101314.81;5019627;28;20211;-70
2021/03/04 06:47:24;;;;;;;15.63;10.13;;;;;;;3.31;100.00;101311.53;5003036;28;20223;-71
2021/03/04 06:49:49;;;;;;;17.00;10.13;;;;;;;3.56;100.00;101312.53;5036438;28;20234;-69
2021/03/04 06:52:24;;;;;;;15.33;10.13;;;;;;;3.38;100.00;101319.59;5051233;28;20728;-70
2021/03/04 06:54:50;;;;;;;15.37;9.87;;;;;;;3.46;100.00;101312.97;5052644;28;20684;-69
2021/03/04 06:57:18;;;;;;;16.23;9.83;;;;;;;3.64;100.00;101314.97;5035460;28;20242;-69
2021/03/04 06:59:45;;;;;;;18.90;10.60;;;;;;;3.80;100.00;101315.31;5019006;28;20665;-70
2021/03/04 07:02:11;;;;;;;16.00;10.10;;;;;;;3.79;100.00;101321.75;5001095;28;20223;-69
2021/03/04 07:04:37;;;;;;;15.37;9.63;;;;;;;3.68;100.00;101302.75;5051880;28;20207;-69
2021/03/04 07:07:04;;;;;;;15.77;9.53;;;;;;;3.48;100.00;101304.69;5051093;28;20223;-69
2021/03/04 07:09:35;;;;;;;18.03;10.27;;;;;;;3.55;100.00;101316.22;5035555;28;20184;-71
2021/03/04 07:12:01;;;;;;;14.87;9.23;;;;;;;3.69;100.00;101313.28;5017701;28;20688;-70
2021/03/04 07:14:26;;;;;;;14.27;8.90;;;;;;;3.78;100.00;101305.84;5018464;28;20207;-70
2021/03/04 07:16:55;;;;;;;15.60;9.53;;;;;;;3.80;100.00;101304.56;5034427;28;20215;-69
2021/03/04 07:19:24;;;;;;;14.90;8.40;;;;;;;3.70;100.00;101314.94;5035277;28;20219;-70
2021/03/04 07:21:53;;;;;;;13.47;8.20;;;;;;;3.51;100.00;101304.25;5033683;28;20611;-69
2021/03/04 07:24:18;;;;;;;12.60;8.47;;;;;;;3.60;100.00;101314.56;5021437;28;20889;-69
2021/03/04 07:26:45;;;;;;;13.17;8.47;;;;;;;3.70;100.00;101322.16;5017911;28;20215;-69
2021/03/04 07:29:11;;;;;;;10.83;7.13;;;;;;;3.60;100.00;101319.91;5051455;28;20184;-70
2021/03/04 07:31:42;;;;;;;11.33;7.13;;;;;;;3.73;100.00;101322.56;5051125;28;20238;-72
2021/03/04 07:34:12;;;;;;;12.43;7.33;;;;;;;3.63;100.00;101319.50;5017017;28;20688;-70
2021/03/04 07:36:38;;;;;;;10.00;7.13;;;;;;;3.51;100.00;101321.19;5018074;28;20227;-70
2021/03/04 07:39:07;;;;;;;10.50;6.83;;;;;;;3.42;100.00;101331.53;5035259;28;20219;-71
2021/03/04 07:41:43;;;;;;;9.73;6.87;;;;;;;3.50;100.00;101324.09;5083185;28;20227;-70
2021/03/04 07:44:09;;;;;;;11.57;7.43;;;;;;;3.82;100.00;101321.28;5018362;28;20226;-70
2021/03/04 07:46:54;;;;;;;10.40;7.20;;;;;;;3.71;100.00;101321.97;5050460;28;20220;-70
2021/03/04 07:49:30;;;;;;;8.67;6.13;;;;;;;3.69;100.00;101318.66;5034584;28;20192;-71
2021/03/04 07:51:59;;;;;;;10.27;6.03;;;;;;;3.71;100.00;101315.78;5032999;28;20219;-71
2021/03/04 07:54:28;;;;;;;10.20;6.43;;;;;;;3.68;100.00;101319.72;5034539;28;20215;-69
2021/03/04 07:57:07;;;;;;;7.60;6.30;;;;;;;3.75;100.00;101317.81;5066703;28;20219;-69
2021/03/04 07:59:36;;;;;;;9.07;6.27;;;;;;;3.85;100.00;101318.19;5050920;28;20207;-69
2021/03/04 08:02:03;;;;;;;9.40;6.93;;;;;;;4.04;100.00;101310.03;5032810;28;20219;-70
2021/03/04 08:04:34;;;;;;;9.40;6.97;;;;;;;3.99;100.00;101314.41;5051076;28;20218;-69
2021/03/04 08:07:03;;;;;;;8.97;7.00;;;;;;;3.99;100.00;101314.41;5034287;28;20632;-69
2021/03/04 08:09:30;;;;;;;10.03;6.90;;;;;;;3.90;100.00;101315.69;5034011;28;20184;-70
2021/03/04 08:12:12;;;;;;;10.10;7.50;;;;;;;3.74;100.00;101305.44;5049106;28;20227;-69
2021/03/04 08:14:52;;;;;;;10.80;7.63;;;;;;;3.92;100.00;101313.63;5050629;28;20191;-69
2021/03/04 08:17:20;;;;;;;9.00;6.97;;;;;;;3.81;100.00;101319.66;5018724;28;20318;-70
2021/03/04 08:19:47;;;;;;;9.60;7.20;;;;;;;4.08;100.00;101313.94;5033531;28;20700;-70
2021/03/04 08:22:19;;;;;;;8.33;7.10;;;;;;;4.05;100.00;101316.25;5050464;28;20756;-69
2021/03/04 08:24:45;;;;;;;9.60;6.93;;;;;;;4.18;100.00;101317.00;5033478;28;20207;-68
2021/03/04 08:27:11;;;;;;;9.03;6.70;;;;;;;4.31;100.00;101308.88;5017039;28;20235;-70
2021/03/04 08:29:47;;;;;;;8.53;6.53;;;;;;;3.97;100.00;101321.84;5066962;28;20199;-69
2021/03/04 08:32:16;;;;;;;9.63;6.80;;;;;;;3.89;100.00;101306.00;5022583;28;20216;-69
2021/03/04 08:34:44;;;;;;;8.53;6.20;;;;;;;4.02;100.00;101298.69;5033045;28;20223;-69
2021/03/04 08:37:25;;;;;;;7.37;5.70;;;;;;;4.08;100.00;101302.38;5014859;28;20226;-69
2021/03/04 08:40:00;;;;;;;8.03;6.10;;;;;;;3.89;100.00;101292.56;5031118;28;20208;-69
2021/03/04 08:42:30;;;;;;;9.30;6.13;;;;;;;4.06;100.00;101288.31;5044968;28;20701;-70
2021/03/04 08:44:56;;;;;;;8.17;6.13;;;;;;;4.18;100.00;101283.94;5030058;28;20211;-69
2021/03/04 08:47:21;;;;;;;6.80;5.27;;;;;;;4.18;100.00;101276.69;5063431;28;20257;-69
2021/03/04 08:49:51;;;;;;;6.00;5.27;;;;;;;4.11;100.00;101289.34;5016463;28;20183;-69
2021/03/04 08:52:22;;;;;;;7.07;6.10;;;;;;;4.31;100.00;101285.47;5016304;28;20219;-70
2021/03/04 08:54:48;;;;;;;7.43;5.73;;;;;;;4.27;100.00;101284.28;5049302;28;20204;-70
2021/03/04 08:57:22;;;;;;;6.37;5.73;;;;;;;4.31;100.00;101279.28;5032536;28;20296;-71
2021/03/04 08:59:48;;;;;;;6.63;5.63;;;;;;;4.36;100.00;101282.13;5067117;28;20210;-69
2021/03/04 09:02:14;;;;;;;7.63;5.70;;;;;;;4.40;100.00;101276.13;5065125;28;20226;-69
2021/03/04 09:04:40;;;;;;;8.00;6.43;;;;;;;4.40;100.00;101270.75;5050237;28;20704;-69
2021/03/04 09:07:06;;;;;;;7.53;6.03;;;;;;;4.41;100.00;101272.38;5049304;28;20285;-69
2021/03/04 09:09:31;;;;;;;10.43;5.83;;;;;;;4.20;100.00;101269.22;5051086;28;20182;-69
2021/03/04 09:12:00;;;;;;;6.97;5.57;;;;;;;4.36;100.00;101256.09;5048388;28;20318;-69
2021/03/04 09:14:34;;;;;;;9.23;6.00;;;;;;;4.29;100.00;101265.25;5049828;28;20210;-69
2021/03/04 09:17:00;;;;;;;6.13;5.40;;;;;;;4.36;100.00;101258.78;5031320;28;20215;-69
2021/03/04 09:19:35;;;;;;;7.63;5.67;;;;;;;4.15;100.00;101265.53;5060688;28;20603;-69
2021/03/04 09:22:11;;;;;;;8.13;6.20;;;;;;;4.27;100.00;101260.09;5043311;28;20225;-71
2021/03/04 09:24:40;;;;;;;8.60;6.03;;;;;;;4.51;100.00;101251.22;5049461;28;20207;-69
2021/03/04 09:27:09;;;;;;;8.93;6.33;;;;;;;4.45;100.00;101256.63;5016501;28;20230;-71
2021/03/04 09:29:37;;;;;;;9.30;6.40;;;;;;;4.47;100.00;101244.63;5049523;28;20567;-69
2021/03/04 09:32:05;;;;;;;9.17;6.47;;;;;;;4.58;100.00;101244.75;5017006;28;20238;-70
2021/03/04 09:34:42;;;;;;;8.13;6.23;;;;;;;4.43;100.00;101248.81;5079594;28;20208;-70
2021/03/04 09:37:15;;;;;;;8.63;5.93;;;;;;;4.60;100.00;101252.59;5045000;28;20722;-70
2021/03/04 09:39:41;;;;;;;9.13;6.03;;;;;;;4.91;100.00;101260.59;5033018;28;20253;-71
2021/03/04 09:42:07;;;;;;;6.50;5.40;;;;;;;4.65;100.00;101263.50;5048875;28;20267;-70
2021/03/04 09:44:35;;;;;;;6.40;5.70;;;;;;;4.80;100.00;101255.94;5029447;28;20203;-70
2021/03/04 09:47:00;;;;;;;9.07;5.93;;;;;;;4.64;100.00;101262.69;5048681;28;20239;-69
2021/03/04 09:49:32;;;;;;;8.00;5.83;;;;;;;4.77;100.00;101251.00;5032046;28;20262;-68
2021/03/04 09:51:58;;;;;;;7.93;5.73;;;;;;;4.82;100.00;101261.94;5010557;28;20298;-69
2021/03/04 09:54:27;;;;;;;7.93;5.83;;;;;;;4.73;100.00;101263.25;5041666;28;20199;-68
2021/03/04 09:57:06;;;;;;;8.10;6.73;;;;;;;4.98;100.00;101262.16;5047752;28;20250;-69
2021/03/04 09:59:43;;;;;;;7.20;5.50;;;;;;;5.23;100.00;101254.91;5065268;28;20219;-70
2021/03/04 10:02:09;;;;;;;7.73;6.30;;;;;;;5.30;100.00;101255.66;5044960;28;20215;-68
2021/03/04 10:04:35;;;;;;;8.50;5.53;;;;;;;5.22;100.00;101256.78;5015067;28;20580;-69
2021/03/04 10:07:00;;;;;;;6.73;5.90;;;;;;;5.53;100.00;101260.16;5048226;28;20211;-69
2021/03/04 10:09:28;;;;;;;6.83;5.63;;;;;;;5.41;100.00;101255.72;5032283;28;20183;-69
2021/03/04 10:11:53;;;;;;;6.73;5.80;;;;;;;5.31;100.00;101255.44;5043203;28;20214;-68
2021/03/04 10:14:19;;;;;;;6.20;5.13;;;;;;;4.86;100.00;101258.56;5014743;28;20207;-68
2021/03/04 10:16:55;;;;;;;6.17;5.57;;;;;;;4.77;100.00;101256.38;5047001;28;20231;-69
2021/03/04 10:19:20;;;;;;;6.07;5.43;;;;;;;4.98;100.00;101249.56;5031404;28;20211;-71
2021/03/04 10:21:46;;;;;;;7.53;5.50;;;;;;;5.03;100.00;101235.44;5030720;28;20314;-70
2021/03/04 10:24:13;;;;;;;9.90;5.93;;;;;;;5.18;100.00;101233.19;5015613;28;20204;-69
2021/03/04 10:26:39;;;;;;;5.50;4.90;;;;;;;5.43;100.00;101226.69;5047977;28;20712;-69
2021/03/04 10:29:05;;;;;;;7.30;5.20;;;;;;;5.48;100.00;101230.38;5049957;28;20171;-70
2021/03/04 10:31:33;;;;;;;5.47;4.53;;;;;;;5.08;100.00;101230.19;5047802;28;20235;-69
2021/03/04 10:33:59;;;;;;;6.03;4.77;;;;;;;5.48;100.00;101234.94;5048699;28;20227;-70
2021/03/04 10:36:25;;;;;;;11.57;6.80;;;;;;;5.50;100.00;101232.84;5047778;28;20277;-70
2021/03/04 10:38:50;;;;;;;8.83;6.83;;;;;;;5.78;100.00;101231.25;5048475;28;20204;-69
2021/03/04 10:41:16;;;;;;;7.10;4.87;;;;;;;5.53;100.00;101229.66;5047851;28;20227;-69
2021/03/04 10:43:42;;;;;;;5.83;4.70;;;;;;;5.41;100.00;101221.53;5030900;28;20184;-70
2021/03/04 10:46:07;;;;;;;5.10;4.37;;;;;;;5.39;100.00;101225.50;5014674;28;20758;-69
2021/03/04 10:48:35;;;;;;;6.30;4.60;;;;;;;5.31;100.00;101217.75;5015317;28;20188;-69
2021/03/04 10:51:00;;;;;;;6.60;4.43;;;;;;;5.49;100.00;101223.09;5030998;28;20224;-70
2021/03/04 10:53:26;;;;;;;5.37;4.60;;;;;;;5.92;100.00;101222.78;5030447;28;20195;-70
2021/03/04 10:55:54;;;;;;;7.43;5.00;;;;;;;6.52;97.53;101200.91;5064081;28;20231;-70
2021/03/04 10:58:22;;;;;;;5.97;4.27;;;;;;;6.32;96.63;101207.66;5048264;28;20254;-69
2021/03/04 11:00:51;;;;;;;7.17;4.60;;;;;;;6.46;97.38;101214.47;5047601;28;20271;-69
2021/03/04 11:03:19;;;;;;;5.57;4.20;;;;;;;6.64;94.87;101216.03;4998675;28;20416;-71
2021/03/04 11:05:45;;;;;;;9.20;4.57;;;;;;;6.29;96.26;101230.50;5031397;28;20306;-69
2021/03/04 11:08:12;;;;;;;4.87;3.93;;;;;;;5.91;97.13;101228.38;5032617;28;20194;-69
2021/03/04 11:10:37;;;;;;;6.57;3.90;;;;;;;5.66;99.80;101222.28;5018029;28;20219;-70
2021/03/04 11:13:08;;;;;;;5.67;3.97;;;;;;;5.94;99.01;101233.31;5051023;28;20184;-70
2021/03/04 11:15:36;;;;;;;5.57;4.30;;;;;;;5.79;100.00;101238.31;5019188;28;20273;-69
2021/03/04 11:18:04;;;;;;;6.90;3.97;;;;;;;6.02;98.74;101239.22;5051744;28;20184;-70